Time;durP1;ratioP1;P1;durP2;ratioP2;P2;SDS_P1;SDS_P2;PMS_P1;PMS_P2;Temp;Humidity;BMP_temperature;BMP_pressure;BME280_temperature;BME280_humidity;BME280_pressure;Samples;Min_cycle;Max_cycle;Signal;HPM_P1;HPM_P2
2023/09/25 00:01:12;;;;;;;12.93;4.57;;;;;;;21.49;96.17;65248.03;5051525;28;20205;-54
2023/09/25 00:03:38;;;;;;;11.82;4.10;;;;;;;21.43;97.23;65240.84;5051418;28;20208;-54
2023/09/25 00:06:04;;;;;;;7.57;3.90;;;;;;;21.45;96.64;65240.50;5051239;28;20189;-58
2023/09/25 00:08:30;;;;;;;7.32;3.95;;;;;;;21.29;98.74;65225.38;5051264;28;20347;-53
2023/09/25 00:10:55;;;;;;;9.48;3.92;;;;;;;21.46;97.30;65242.16;5051241;28;20248;-53
2023/09/25 00:13:21;;;;;;;6.68;3.95;;;;;;;21.38;97.65;65233.31;5051389;28;20204;-54
2023/09/25 00:15:47;;;;;;;5.85;4.10;;;;;;;21.21;99.87;65214.50;5051312;28;20243;-57
2023/09/25 00:18:14;;;;;;;8.27;4.25;;;;;;;21.22;100.00;65218.19;5051146;28;20280;-55
2023/09/25 00:20:40;;;;;;;7.90;3.45;;;;;;;21.20;99.49;65213.41;5051122;28;20197;-53
2023/09/25 00:23:05;;;;;;;9.25;4.30;;;;;;;21.13;100.00;65208.22;5050940;28;20266;-53
2023/09/25 00:25:32;;;;;;;11.00;3.83;;;;;;;21.04;100.00;65195.72;5051177;28;20197;-55
2023/09/25 00:27:58;;;;;;;6.78;3.53;;;;;;;21.02;100.00;65192.94;5050861;28;20267;-54
2023/09/25 00:30:24;;;;;;;12.95;4.40;;;;;;;20.98;100.00;65189.06;5050948;28;20292;-54
2023/09/25 00:32:50;;;;;;;15.05;4.70;;;;;;;21.13;100.00;65205.13;5050834;28;20248;-54
2023/09/25 00:35:17;;;;;;;7.53;4.55;;;;;;;21.09;100.00;65200.69;5050771;28;20292;-53
2023/09/25 00:37:42;;;;;;;9.55;4.10;;;;;;;21.12;100.00;65204.56;5033174;28;20209;-53
2023/09/25 00:40:17;;;;;;;8.82;4.68;;;;;;;21.04;100.00;65198.28;5050874;28;20228;-52
2023/09/25 00:42:49;;;;;;;8.77;4.05;;;;;;;20.80;100.00;65171.72;5051058;28;20209;-53
2023/09/25 00:45:14;;;;;;;11.60;4.43;;;;;;;20.82;100.00;65171.94;5050958;28;20225;-54
2023/09/25 00:47:42;;;;;;;9.07;4.32;;;;;;;20.73;100.00;65163.97;5050636;28;20629;-53
2023/09/25 00:50:09;;;;;;;11.10;4.20;;;;;;;20.83;100.00;65172.47;5050550;28;20737;-54
2023/09/25 00:52:37;;;;;;;11.90;4.03;;;;;;;20.91;100.00;65183.88;5050555;28;20202;-54
2023/09/25 00:55:04;;;;;;;8.00;4.07;;;;;;;20.61;100.00;65150.72;5050671;28;20663;-54
2023/09/25 00:57:34;;;;;;;10.93;4.50;;;;;;;20.56;100.00;65145.75;5050405;28;20217;-54
2023/09/25 01:00:01;;;;;;;7.88;4.10;;;;;;;20.66;100.00;65156.25;5050351;28;20232;-55
2023/09/25 01:02:27;;;;;;;9.93;3.95;;;;;;;20.50;100.00;65136.00;5050326;28;20213;-54
2023/09/25 01:04:52;;;;;;;12.75;4.40;;;;;;;20.46;100.00;65136.72;5050542;28;20200;-51
2023/09/25 01:07:19;;;;;;;11.55;4.32;;;;;;;20.46;100.00;65132.13;5050534;28;20574;-53
2023/09/25 01:10:07;;;;;;;9.45;4.15;;;;;;;20.53;100.00;65139.31;5050331;28;20244;-53
2023/09/25 01:12:34;;;;;;;9.95;4.00;;;;;;;20.71;100.00;65159.22;5050413;28;20644;-54
2023/09/25 01:15:01;;;;;;;7.43;4.25;;;;;;;20.70;100.00;65158.09;5050387;28;20220;-54
2023/09/25 01:17:28;;;;;;;12.35;4.88;;;;;;;20.62;100.00;65149.28;5050303;28;20213;-54
2023/09/25 01:19:54;;;;;;;9.57;3.95;;;;;;;20.59;100.00;65145.94;5050443;28;20227;-55
2023/09/25 01:22:19;;;;;;;9.93;4.80;;;;;;;20.48;100.00;65136.34;5050614;28;20656;-54
2023/09/25 01:24:45;;;;;;;8.40;4.22;;;;;;;20.62;100.00;65152.38;5050205;28;20189;-54
2023/09/25 01:27:10;;;;;;;8.38;4.45;;;;;;;20.49;100.00;65137.44;5050644;28;20213;-55
2023/09/25 01:29:35;;;;;;;5.85;3.83;;;;;;;20.36;100.00;65123.63;5050074;28;20300;-54
2023/09/25 01:32:01;;;;;;;10.35;4.18;;;;;;;20.43;100.00;65128.25;5050224;28;20592;-54
2023/09/25 01:34:26;;;;;;;11.90;4.53;;;;;;;20.30;100.00;65119.56;5050379;28;20283;-58
2023/09/25 01:36:52;;;;;;;7.47;3.83;;;;;;;20.15;100.00;65102.44;5050147;28;20209;-55
2023/09/25 01:39:18;;;;;;;12.18;4.07;;;;;;;20.12;100.00;65099.66;5050036;28;20194;-56
2023/09/25 01:41:44;;;;;;;11.00;3.58;;;;;;;20.19;99.74;65101.72;5050177;28;20217;-55
2023/09/25 01:44:09;;;;;;;5.97;3.70;;;;;;;20.20;100.00;65105.97;5050088;28;20707;-55
2023/09/25 01:46:34;;;;;;;8.05;3.95;;;;;;;20.22;100.00;65107.63;5032090;28;20586;-55
2023/09/25 01:49:00;;;;;;;11.30;3.95;;;;;;;20.17;100.00;65100.06;5049975;28;20209;-54
2023/09/25 01:51:25;;;;;;;7.00;3.83;;;;;;;20.20;100.00;65105.41;5050037;28;20213;-56
2023/09/25 01:53:51;;;;;;;8.52;3.95;;;;;;;20.09;100.00;65094.34;5049922;28;20560;-55
2023/09/25 01:56:17;;;;;;;6.82;4.18;;;;;;;20.28;100.00;65114.78;5049637;28;20580;-57
2023/09/25 01:58:43;;;;;;;6.40;3.80;;;;;;;20.37;100.00;65127.31;5050018;28;20265;-54
2023/09/25 02:01:09;;;;;;;8.35;4.13;;;;;;;20.20;100.00;65108.53;5049538;28;20232;-55
2023/09/25 02:03:34;;;;;;;8.98;4.35;;;;;;;20.06;100.00;65088.47;5031947;28;20193;-56
2023/09/25 02:06:00;;;;;;;11.18;4.05;;;;;;;19.97;100.00;65078.53;5051804;28;20209;-54
2023/09/25 02:08:26;;;;;;;8.85;3.88;;;;;;;20.03;100.00;65087.72;5053042;28;20240;-55
2023/09/25 02:10:52;;;;;;;9.63;4.00;;;;;;;19.99;100.00;65083.31;5053321;28;20214;-55
2023/09/25 02:13:17;;;;;;;6.70;3.70;;;;;;;19.79;100.00;65058.66;5053030;28;20213;-55
2023/09/25 02:15:43;;;;;;;5.68;4.30;;;;;;;19.97;100.00;65080.53;5053079;28;20579;-54
2023/09/25 02:18:08;;;;;;;8.35;4.20;;;;;;;19.86;100.00;65068.38;5052948;28;20217;-56
2023/09/25 02:20:34;;;;;;;10.70;4.93;;;;;;;19.87;100.00;65066.94;5052929;28;20280;-54
2023/09/25 02:23:00;;;;;;;6.30;3.88;;;;;;;19.79;100.00;65063.78;5053072;28;20351;-60
2023/09/25 02:25:25;;;;;;;8.88;3.90;;;;;;;19.91;100.00;65074.47;5053152;28;20232;-54
2023/09/25 02:27:51;;;;;;;7.20;3.90;;;;;;;19.95;100.00;65081.44;5052694;28;20258;-54
2023/09/25 02:30:17;;;;;;;10.27;3.85;;;;;;;19.99;100.00;65080.75;5053048;28;20205;-53
2023/09/25 02:32:43;;;;;;;5.32;3.58;;;;;;;19.80;100.00;65062.31;5034740;28;20296;-53
2023/09/25 02:35:10;;;;;;;7.93;3.92;;;;;;;19.64;100.00;65044.09;5034875;28;20229;-53
2023/09/25 02:37:37;;;;;;;6.65;3.22;;;;;;;19.61;100.00;65041.34;5052622;28;20224;-54
2023/09/25 02:40:17;;;;;;;6.72;3.63;;;;;;;19.61;100.00;65043.91;5034911;28;20267;-53
2023/09/25 02:42:46;;;;;;;9.73;3.90;;;;;;;19.69;100.00;65050.19;5052765;28;20209;-54
2023/09/25 02:45:12;;;;;;;6.22;3.88;;;;;;;19.73;100.00;65057.16;5052621;28;20197;-54
2023/09/25 02:47:38;;;;;;;10.32;3.60;;;;;;;19.69;100.00;65050.19;5052568;28;20216;-54
2023/09/25 02:50:04;;;;;;;6.30;3.33;;;;;;;19.70;100.00;65050.72;5052580;28;20248;-54
2023/09/25 02:52:29;;;;;;;4.97;3.90;;;;;;;19.59;100.00;65038.56;5052165;28;20567;-54
2023/09/25 02:54:54;;;;;;;7.75;3.53;;;;;;;19.57;100.00;65033.81;5052461;28;20593;-54
2023/09/25 02:57:20;;;;;;;6.78;3.88;;;;;;;19.64;100.00;65042.09;5052700;28;20209;-53
2023/09/25 02:59:46;;;;;;;6.93;3.78;;;;;;;19.55;100.00;65032.16;5052644;28;20208;-55
2023/09/25 03:02:11;;;;;;;6.60;4.75;;;;;;;19.52;100.00;65028.28;5052599;28;20209;-54
2023/09/25 03:04:37;;;;;;;6.97;4.95;;;;;;;19.49;100.00;65028.09;5052415;28;20197;-54
2023/09/25 03:07:03;;;;;;;6.03;5.03;;;;;;;19.42;100.00;65020.34;5052216;28;20692;-53
2023/09/25 03:09:28;;;;;;;9.52;6.03;;;;;;;19.49;100.00;65028.09;5052219;28;20214;-54
2023/09/25 03:11:54;;;;;;;11.25;5.68;;;;;;;19.52;100.00;65028.84;5034392;28;20217;-54
2023/09/25 03:14:19;;;;;;;8.93;5.30;;;;;;;19.82;100.00;65061.41;5052237;28;20201;-53
2023/09/25 03:16:46;;;;;;;10.82;6.22;;;;;;;19.75;100.00;65056.81;5033127;28;20726;-54
2023/09/25 03:19:12;;;;;;;13.57;7.00;;;;;;;19.57;100.00;65033.81;5052125;28;20198;-53
2023/09/25 03:21:40;;;;;;;9.18;6.80;;;;;;;19.50;100.00;65026.06;5052265;28;20300;-55
2023/09/25 03:24:05;;;;;;;11.48;7.13;;;;;;;19.59;100.00;65036.56;5050778;28;20229;-54
2023/09/25 03:26:31;;;;;;;12.02;7.60;;;;;;;19.43;100.00;65024.03;5052042;28;20252;-56
2023/09/25 03:28:56;;;;;;;13.05;7.00;;;;;;;19.45;100.00;65023.69;5052146;28;20197;-60
2023/09/25 03:31:22;;;;;;;13.98;7.85;;;;;;;19.49;100.00;65028.09;5051827;28;20680;-59
2023/09/25 03:33:47;;;;;;;12.85;8.32;;;;;;;19.41;100.00;65016.69;5052024;28;20205;-54
2023/09/25 03:36:13;;;;;;;12.60;8.65;;;;;;;19.32;100.00;65008.72;5052229;28;20209;-54
2023/09/25 03:38:39;;;;;;;11.50;8.98;;;;;;;19.25;100.00;64999.00;5051932;28;20675;-54
2023/09/25 03:41:04;;;;;;;13.55;8.68;;;;;;;19.27;100.00;65001.22;5033815;28;20213;-54
2023/09/25 03:43:30;;;;;;;12.70;9.52;;;;;;;19.26;100.00;65003.22;5051945;28;20629;-54
2023/09/25 03:45:56;;;;;;;12.38;8.75;;;;;;;19.25;100.00;64999.56;5051710;28;20284;-57
2023/09/25 03:48:22;;;;;;;11.15;8.85;;;;;;;19.25;100.00;65002.09;5051856;28;20216;-54
2023/09/25 03:50:47;;;;;;;14.27;9.20;;;;;;;19.19;100.00;64995.50;5051840;28;20620;-54
2023/09/25 03:53:13;;;;;;;14.07;8.60;;;;;;;19.17;100.00;64992.72;5051472;28;20606;-54
2023/09/25 03:55:39;;;;;;;10.98;8.75;;;;;;;19.15;100.00;64993.63;5033566;28;20242;-54
2023/09/25 03:58:05;;;;;;;10.88;8.98;;;;;;;19.24;100.00;64998.47;5051761;28;20339;-53
2023/09/25 04:00:30;;;;;;;11.68;9.85;;;;;;;19.10;100.00;64985.00;5051482;28;20280;-54
2023/09/25 04:02:56;;;;;;;13.27;9.38;;;;;;;19.05;100.00;64979.47;5051352;28;20221;-54
2023/09/25 04:05:21;;;;;;;13.98;9.63;;;;;;;19.13;100.00;64988.31;5051431;28;20201;-54
2023/09/25 04:07:47;;;;;;;13.90;9.52;;;;;;;19.20;100.00;64996.03;5051590;28;20209;-55
2023/09/25 04:10:13;;;;;;;14.85;10.35;;;;;;;19.06;100.00;64980.59;5051324;28;20267;-54
2023/09/25 04:12:39;;;;;;;12.90;10.07;;;;;;;19.04;100.00;64978.38;5049975;28;20218;-54
2023/09/25 04:15:08;;;;;;;16.55;10.63;;;;;;;19.00;100.00;64976.53;5051406;28;20198;-52
2023/09/25 04:17:34;;;;;;;13.77;9.75;;;;;;;19.09;100.00;64983.91;5050929;28;20225;-53
2023/09/25 04:19:59;;;;;;;17.48;11.30;;;;;;;19.06;100.00;64980.59;5051218;28;20240;-53
2023/09/25 04:22:25;;;;;;;11.90;9.20;;;;;;;19.30;100.00;65007.09;5051498;28;20334;-51
2023/09/25 04:24:52;;;;;;;14.48;8.48;;;;;;;19.29;100.00;65003.41;5051021;28;20198;-57
2023/09/25 04:27:18;;;;;;;10.50;7.47;;;;;;;19.53;100.00;65029.94;5033176;28;20218;-53
2023/09/25 04:29:44;;;;;;;25.25;22.63;;;;;;;19.63;100.00;65041.00;5050686;28;20228;-58
2023/09/25 04:32:11;;;;;;;13.13;7.55;;;;;;;19.69;100.00;65050.19;5050830;28;20218;-58
2023/09/25 04:34:37;;;;;;;10.48;6.80;;;;;;;19.61;100.00;65041.34;5050928;28;20272;-57
2023/09/25 04:37:05;;;;;;;19.45;7.55;;;;;;;19.72;100.00;65053.47;5032773;28;20294;-52
2023/09/25 04:39:32;;;;;;;13.02;8.52;;;;;;;19.68;100.00;65048.50;5050980;28;20284;-52
2023/09/25 04:41:59;;;;;;;12.65;7.90;;;;;;;19.78;100.00;65062.66;5050694;28;20205;-53
2023/09/25 04:44:25;;;;;;;12.98;8.55;;;;;;;19.73;100.00;65052.03;5050775;28;20213;-52
2023/09/25 04:46:50;;;;;;;10.80;8.85;;;;;;;19.66;100.00;65048.84;5051003;28;20220;-52
2023/09/25 04:49:17;;;;;;;14.73;9.60;;;;;;;19.65;100.00;65043.19;5050820;28;20209;-55
2023/09/25 04:51:43;;;;;;;15.23;9.60;;;;;;;19.70;100.00;65048.72;5050530;28;20653;-53
2023/09/25 04:54:10;;;;;;;17.38;10.93;;;;;;;19.55;100.00;65037.28;5032871;28;20272;-56
2023/09/25 04:56:36;;;;;;;16.48;11.50;;;;;;;19.43;100.00;65021.47;5050792;28;20260;-51
2023/09/25 04:59:05;;;;;;;19.90;11.52;;;;;;;19.38;100.00;65017.94;5049205;28;20678;-52
2023/09/25 05:01:30;;;;;;;15.82;11.02;;;;;;;19.33;100.00;65010.44;5050435;28;20227;-52
2023/09/25 05:03:56;;;;;;;17.25;11.55;;;;;;;19.44;100.00;65022.00;5050639;28;20206;-51
2023/09/25 05:06:21;;;;;;;14.50;10.05;;;;;;;19.52;100.00;65031.38;5050705;28;20213;-52
2023/09/25 05:08:47;;;;;;;14.38;11.35;;;;;;;19.51;100.00;65029.75;5050547;28;20208;-53
2023/09/25 05:11:12;;;;;;;19.17;11.93;;;;;;;19.59;100.00;65038.56;5050540;28;20223;-51
2023/09/25 05:13:38;;;;;;;15.20;11.15;;;;;;;19.56;100.00;65032.69;5050316;28;20305;-53
2023/09/25 05:16:03;;;;;;;14.65;11.27;;;;;;;19.37;100.00;65014.84;5032334;28;20259;-51
2023/09/25 05:18:29;;;;;;;16.00;11.35;;;;;;;19.43;100.00;65021.47;5050166;28;20295;-52
2023/09/25 05:23:45;;;;;;;15.60;11.57;;;;;;;19.43;100.00;65020.91;5050919;28;20708;-51
2023/09/25 05:26:10;;;;;;;16.13;11.20;;;;;;;19.42;100.00;65022.91;5049263;28;20213;-53
2023/09/25 05:28:36;;;;;;;16.13;11.25;;;;;;;19.38;100.00;65015.38;5049159;28;20205;-52
2023/09/25 05:31:02;;;;;;;19.17;11.80;;;;;;;19.32;100.00;65008.72;5048297;28;20225;-52
2023/09/25 05:33:27;;;;;;;14.15;11.38;;;;;;;19.26;100.00;65003.22;5046666;28;20205;-51
2023/09/25 05:35:54;;;;;;;15.45;11.60;;;;;;;19.34;100.00;65010.97;5047923;28;20738;-52
2023/09/25 05:38:19;;;;;;;16.70;11.00;;;;;;;19.39;100.00;65017.06;5029715;28;20219;-52
2023/09/25 05:40:44;;;;;;;15.27;10.32;;;;;;;19.46;100.00;65026.75;5050569;28;20582;-52
2023/09/25 05:43:10;;;;;;;12.80;9.30;;;;;;;19.63;100.00;65043.56;5053527;28;20263;-51
2023/09/25 05:45:37;;;;;;;17.85;9.82;;;;;;;19.51;100.00;65027.19;5053514;28;20583;-51
2023/09/25 05:48:03;;;;;;;12.88;9.05;;;;;;;19.58;100.00;65035.47;5035476;28;20220;-52
2023/09/25 05:50:33;;;;;;;16.23;8.05;;;;;;;19.45;100.00;65023.69;5053399;28;20201;-52
2023/09/25 05:52:59;;;;;;;12.95;7.70;;;;;;;19.45;100.00;65021.13;5053894;28;20271;-52
2023/09/25 05:55:25;;;;;;;12.82;8.30;;;;;;;19.44;100.00;65022.56;5053864;28;20205;-54
2023/09/25 05:57:51;;;;;;;11.02;7.95;;;;;;;19.47;100.00;65025.88;5053686;28;20221;-52
2023/09/25 06:00:18;;;;;;;13.18;8.93;;;;;;;19.55;100.00;65034.16;5053645;28;20674;-52
2023/09/25 06:02:45;;;;;;;14.80;9.38;;;;;;;19.85;100.00;65065.28;5053253;28;20319;-54
2023/09/25 06:05:15;;;;;;;15.77;9.77;;;;;;;19.79;100.00;65058.09;5053473;28;20288;-52
2023/09/25 06:07:44;;;;;;;16.50;9.07;;;;;;;19.85;100.00;65067.84;5035833;28;20221;-52
2023/09/25 06:10:11;;;;;;;20.80;9.27;;;;;;;19.91;100.00;65074.47;5053284;28;20241;-52
2023/09/25 06:12:39;;;;;;;18.05;9.60;;;;;;;19.96;100.00;65077.41;5053622;28;20264;-52
2023/09/25 06:15:09;;;;;;;12.38;8.75;;;;;;;19.89;100.00;65069.69;5052984;28;20634;-52
2023/09/25 06:17:36;;;;;;;16.40;9.73;;;;;;;20.04;100.00;65088.81;5053555;28;20256;-52
2023/09/25 06:20:04;;;;;;;12.52;10.10;;;;;;;20.10;100.00;65092.88;5053109;28;20680;-52
2023/09/25 06:22:33;;;;;;;13.50;9.82;;;;;;;20.18;100.00;65101.16;5052979;28;20213;-52
2023/09/25 06:24:59;;;;;;;15.18;10.30;;;;;;;20.24;100.00;65107.81;5053134;28;20206;-52
2023/09/25 06:27:27;;;;;;;11.75;9.77;;;;;;;20.12;100.00;65094.00;5051652;28;20213;-54
2023/09/25 06:29:52;;;;;;;15.82;10.40;;;;;;;20.22;100.00;65108.16;5035084;28;20287;-53
2023/09/25 06:32:18;;;;;;;14.55;10.20;;;;;;;20.00;100.00;65084.41;5035063;28;20214;-55
2023/09/25 06:34:43;;;;;;;13.38;11.15;;;;;;;20.16;100.00;65096.41;5053105;28;20221;-52
2023/09/25 06:37:09;;;;;;;17.58;11.40;;;;;;;20.29;100.00;65115.91;5053158;28;20324;-52
2023/09/25 06:39:42;;;;;;;14.45;11.15;;;;;;;20.20;100.00;65102.84;5051638;28;20201;-52
2023/09/25 06:42:07;;;;;;;15.20;11.07;;;;;;;20.20;100.00;65105.41;5052490;28;20335;-53
2023/09/25 06:44:33;;;;;;;16.20;11.32;;;;;;;20.25;100.00;65108.38;5051534;28;20178;-53
2023/09/25 06:46:59;;;;;;;14.15;11.10;;;;;;;20.19;100.00;65102.31;5052973;28;20209;-54
2023/09/25 06:49:24;;;;;;;15.85;11.32;;;;;;;20.30;100.00;65117.00;5034724;28;20267;-52
2023/09/25 06:51:50;;;;;;;15.18;11.60;;;;;;;20.39;100.00;65128.97;5052460;28;20221;-54
2023/09/25 06:54:16;;;;;;;18.13;11.70;;;;;;;20.53;100.00;65141.88;5052648;28;20280;-52
2023/09/25 06:56:42;;;;;;;17.17;11.77;;;;;;;20.63;100.00;65150.38;5052281;28;20210;-54
2023/09/25 06:59:07;;;;;;;15.52;10.85;;;;;;;20.67;100.00;65155.34;5052554;28;20255;-52
2023/09/25 07:01:33;;;;;;;19.80;12.05;;;;;;;20.76;100.00;65165.31;5052438;28;20594;-52
2023/09/25 07:03:59;;;;;;;15.95;12.20;;;;;;;20.77;100.00;65168.97;5052429;28;20656;-52
2023/09/25 07:06:25;;;;;;;16.92;13.02;;;;;;;21.01;100.00;65191.84;5052602;28;20238;-52
2023/09/25 07:08:50;;;;;;;16.23;12.65;;;;;;;21.05;100.00;65196.81;5052509;28;20684;-52
2023/09/25 07:11:19;;;;;;;19.35;13.93;;;;;;;21.24;100.00;65217.84;5050952;28;20228;-52
2023/09/25 07:13:44;;;;;;;19.55;12.63;;;;;;;21.34;100.00;65228.88;5052342;28;20667;-52
2023/09/25 07:16:10;;;;;;;18.33;13.20;;;;;;;21.36;96.88;65233.09;5052449;28;20209;-53
2023/09/25 07:18:37;;;;;;;18.25;12.52;;;;;;;21.45;95.68;65240.50;5052657;28;20247;-53
2023/09/25 07:21:03;;;;;;;17.83;12.95;;;;;;;21.44;95.69;65239.94;5052322;28;20247;-52
2023/09/25 07:23:29;;;;;;;15.07;11.95;;;;;;;21.44;94.35;65239.38;5052457;28;20204;-52
2023/09/25 07:26:03;;;;;;;20.85;12.82;;;;;;;21.54;93.35;65251.00;5052107;28;20744;-52
2023/09/25 07:28:29;;;;;;;14.27;11.20;;;;;;;21.57;91.98;65254.31;5052264;28;20206;-52
2023/09/25 07:30:55;;;;;;;15.70;13.20;;;;;;;21.62;90.80;65259.31;5052019;28;20375;-53
2023/09/25 07:33:22;;;;;;;16.60;11.55;;;;;;;21.66;89.17;65263.72;5050712;28;20284;-53
2023/09/25 07:35:48;;;;;;;14.82;12.23;;;;;;;21.77;91.93;65279.00;5052104;28;20336;-51
2023/09/25 07:38:13;;;;;;;14.50;12.07;;;;;;;21.82;90.58;65284.00;5052052;28;20210;-52
2023/09/25 07:40:39;;;;;;;16.77;12.50;;;;;;;21.79;89.71;65277.56;5033964;28;20419;-53
2023/09/25 07:43:04;;;;;;;16.02;12.13;;;;;;;21.94;87.61;65294.19;5052130;28;20679;-54
2023/09/25 07:45:32;;;;;;;17.00;10.80;;;;;;;21.99;84.25;65302.84;5034104;28;20581;-53
2023/09/25 07:47:57;;;;;;;15.63;10.55;;;;;;;21.93;82.53;65293.63;5052406;28;20294;-53
2023/09/25 07:50:25;;;;;;;15.23;11.38;;;;;;;21.98;86.41;65303.75;5051779;28;20702;-52
2023/09/25 07:52:54;;;;;;;15.63;9.52;;;;;;;22.06;84.97;65307.47;5052116;28;20247;-53
2023/09/25 07:55:28;;;;;;;11.98;9.00;;;;;;;22.12;81.31;65317.22;5051787;28;20193;-53
2023/09/25 07:57:54;;;;;;;12.15;8.40;;;;;;;22.28;79.26;65331.81;5051870;28;20714;-52
2023/09/25 08:00:24;;;;;;;10.00;7.43;;;;;;;22.31;78.97;65337.69;5051639;28;20209;-52
2023/09/25 08:02:51;;;;;;;8.13;7.32;;;;;;;22.41;78.53;65346.75;5050729;28;20305;-56
2023/09/25 08:05:21;;;;;;;9.60;7.30;;;;;;;22.54;77.80;65363.69;5051649;28;20197;-58
2023/09/25 08:07:49;;;;;;;10.13;7.45;;;;;;;22.52;79.05;65358.38;5033313;28;20216;-52
2023/09/25 08:10:15;;;;;;;13.48;7.72;;;;;;;22.75;78.31;65383.84;5051726;28;20225;-52
2023/09/25 08:12:42;;;;;;;13.82;6.65;;;;;;;22.85;72.22;65394.94;5051772;28;20267;-52
2023/09/25 08:15:08;;;;;;;12.48;7.88;;;;;;;22.77;74.80;65385.50;5051448;28;20208;-52
2023/09/25 08:17:34;;;;;;;8.95;7.05;;;;;;;22.84;76.19;65393.28;5033570;28;20296;-55
2023/09/25 08:20:00;;;;;;;10.55;7.72;;;;;;;22.74;76.54;65382.75;5051462;28;20575;-53
2023/09/25 08:22:26;;;;;;;9.52;6.35;;;;;;;22.71;74.86;65378.88;5051374;28;20751;-53
2023/09/25 08:24:52;;;;;;;6.53;5.43;;;;;;;22.68;70.21;65376.13;5051240;28;20292;-52
2023/09/25 08:27:19;;;;;;;11.32;6.65;;;;;;;22.54;71.57;65358.56;5051564;28;20219;-53
2023/09/25 08:29:46;;;;;;;9.40;5.95;;;;;;;22.68;69.01;65375.56;5051192;28;20221;-57
2023/09/25 08:32:11;;;;;;;7.53;5.82;;;;;;;22.91;69.25;65401.00;5033720;28;20275;-55
2023/09/25 08:34:38;;;;;;;8.98;5.85;;;;;;;23.26;70.18;65439.78;5051221;28;20206;-54
2023/09/25 08:37:04;;;;;;;10.20;5.75;;;;;;;23.51;72.54;65466.97;5051673;28;20193;-54
2023/09/25 08:39:30;;;;;;;12.45;5.63;;;;;;;23.30;69.28;65444.78;5051220;28;20672;-54
2023/09/25 08:41:57;;;;;;;7.82;4.20;;;;;;;23.30;66.36;65442.22;5050990;28;20224;-56
2023/09/25 08:44:23;;;;;;;4.50;4.10;;;;;;;23.15;66.35;65428.16;5033531;28;20241;-55
2023/09/25 08:46:49;;;;;;;8.65;4.50;;;;;;;23.04;66.48;65415.97;5050917;28;20208;-55
2023/09/25 08:49:15;;;;;;;8.00;3.83;;;;;;;22.99;66.90;65404.72;5050813;28;20592;-54
2023/09/25 08:51:41;;;;;;;7.25;4.30;;;;;;;22.82;70.17;65391.63;5051026;28;20248;-54
2023/09/25 08:54:07;;;;;;;6.32;4.28;;;;;;;22.82;69.46;65391.63;5050896;28;20240;-55
2023/09/25 08:56:35;;;;;;;7.15;4.28;;;;;;;22.61;71.09;65367.78;5050721;28;20216;-54
2023/09/25 08:59:03;;;;;;;7.95;4.85;;;;;;;22.56;73.51;65363.34;5050797;28;20229;-55
2023/09/25 09:01:29;;;;;;;5.25;4.05;;;;;;;22.40;74.85;65342.53;5050933;28;20304;-54
2023/09/25 09:03:55;;;;;;;6.80;5.00;;;;;;;22.39;73.74;65343.97;5051074;28;20219;-54
2023/09/25 09:06:21;;;;;;;8.30;4.70;;;;;;;22.41;76.52;65346.19;5050646;28;20691;-54
2023/09/25 09:08:48;;;;;;;9.18;5.10;;;;;;;22.27;75.16;65333.25;5050681;28;20197;-55
2023/09/25 09:11:15;;;;;;;10.55;4.22;;;;;;;22.09;76.71;65311.34;5032925;28;20240;-55
2023/09/25 09:13:46;;;;;;;7.22;4.65;;;;;;;22.20;76.05;65322.97;5050671;28;20235;-53
2023/09/25 09:16:14;;;;;;;6.93;4.50;;;;;;;22.21;76.92;65324.06;5050566;28;20201;-52
2023/09/25 09:18:40;;;;;;;11.10;4.80;;;;;;;22.27;76.35;65331.25;5050498;28;20274;-55
2023/09/25 09:21:08;;;;;;;11.93;4.88;;;;;;;22.36;77.70;65341.22;5050453;28;20197;-55
2023/09/25 09:23:41;;;;;;;7.15;4.65;;;;;;;22.36;75.49;65340.66;5050350;28;20209;-55
2023/09/25 09:26:10;;;;;;;7.45;4.93;;;;;;;22.31;76.16;65335.13;5032521;28;20225;-56
2023/09/25 09:28:37;;;;;;;7.82;4.53;;;;;;;22.25;75.70;65331.06;5050379;28;20210;-54
2023/09/25 09:31:07;;;;;;;10.40;4.95;;;;;;;22.29;74.27;65336.03;5050444;28;20339;-54
2023/09/25 09:33:36;;;;;;;4.70;3.90;;;;;;;22.40;73.90;65345.09;5050411;28;20232;-54
2023/09/25 09:36:01;;;;;;;6.30;3.60;;;;;;;22.44;74.54;65352.09;5032280;28;20292;-55
2023/09/25 09:38:28;;;;;;;6.35;4.55;;;;;;;22.54;74.24;65360.59;5032443;28;20293;-55
2023/09/25 09:40:54;;;;;;;4.70;4.30;;;;;;;22.54;76.93;65360.59;5031069;28;20219;-54
2023/09/25 09:43:22;;;;;;;7.20;4.50;;;;;;;22.63;73.55;65368.00;5049990;28;20220;-54
2023/09/25 09:45:50;;;;;;;8.10;4.18;;;;;;;22.73;75.27;65381.63;5048618;28;20284;-58
2023/09/25 09:48:19;;;;;;;7.82;4.32;;;;;;;23.27;72.32;65441.44;5049889;28;20292;-54
2023/09/25 09:50:50;;;;;;;7.35;3.72;;;;;;;23.55;69.02;65471.97;5049995;28;20296;-54
2023/09/25 09:53:17;;;;;;;6.95;4.35;;;;;;;23.73;66.44;65491.34;5049921;28;20217;-54
2023/09/25 09:55:44;;;;;;;6.03;4.22;;;;;;;23.91;67.05;65511.84;5049731;28;20205;-52
2023/09/25 09:58:11;;;;;;;9.55;4.00;;;;;;;23.95;69.09;65516.28;5049731;28;20734;-53
2023/09/25 10:00:41;;;;;;;4.80;3.97;;;;;;;24.16;66.40;65539.59;5049944;28;20240;-58
2023/09/25 10:03:10;;;;;;;8.13;4.47;;;;;;;24.01;68.96;65522.94;5049771;28;20209;-56
2023/09/25 10:05:45;;;;;;;5.22;4.50;;;;;;;24.25;66.80;65548.44;5049697;28;20209;-53
2023/09/25 10:08:11;;;;;;;6.93;4.20;;;;;;;24.10;65.02;65532.38;5049677;28;20217;-53
2023/09/25 10:11:19;;;;;;;9.77;4.50;;;;;;;23.93;64.75;65516.09;5049547;28;20290;-52
2023/09/25 10:13:45;;;;;;;6.95;3.70;;;;;;;23.71;65.62;65492.25;5048124;28;20235;-53
2023/09/25 10:16:12;;;;;;;8.82;4.10;;;;;;;23.70;66.63;65488.00;5049939;28;20289;-53
2023/09/25 10:18:41;;;;;;;4.13;3.72;;;;;;;23.72;69.86;65490.22;5049946;28;20221;-53
2023/09/25 10:21:14;;;;;;;5.68;3.60;;;;;;;24.00;66.57;65518.69;5031767;28;20273;-52
2023/09/25 10:23:43;;;;;;;5.20;4.35;;;;;;;23.82;64.56;65501.31;5050142;28;20663;-52
2023/09/25 10:26:24;;;;;;;9.70;4.78;;;;;;;24.09;64.50;65531.28;5032120;28;20205;-54
2023/09/25 10:29:14;;;;;;;8.63;4.07;;;;;;;24.22;64.87;65545.69;5052773;28;20251;-54
2023/09/25 10:31:45;;;;;;;9.40;4.28;;;;;;;24.58;63.81;65583.03;5052194;28;20293;-52
2023/09/25 10:34:11;;;;;;;4.55;3.50;;;;;;;24.92;63.65;65622.78;5051815;28;20202;-53
2023/09/25 10:36:47;;;;;;;5.80;3.80;;;;;;;24.96;62.18;65627.78;5052675;28;20701;-53
2023/09/25 10:39:16;;;;;;;6.20;3.88;;;;;;;25.18;59.28;65651.09;5052699;28;20197;-53
2023/09/25 10:41:45;;;;;;;10.30;3.60;;;;;;;25.12;59.06;65644.44;5052708;28;20262;-53
2023/09/25 10:44:12;;;;;;;6.97;3.80;;;;;;;25.55;57.82;65692.19;5052961;28;20193;-53
2023/09/25 10:46:38;;;;;;;7.55;4.05;;;;;;;25.65;57.09;65703.28;5053049;28;20213;-52
2023/09/25 10:49:06;;;;;;;5.75;3.55;;;;;;;25.52;56.86;65689.41;5052715;28;20276;-53
2023/09/25 10:51:31;;;;;;;4.13;3.38;;;;;;;25.32;57.85;65664.03;5052935;28;20217;-52
2023/09/25 10:53:57;;;;;;;8.75;3.53;;;;;;;24.79;58.44;65605.78;5052770;28;20194;-53
2023/09/25 10:56:22;;;;;;;10.38;4.28;;;;;;;24.68;61.51;65596.72;5052426;28;20247;-58
2023/09/25 10:58:52;;;;;;;10.43;3.83;;;;;;;24.61;59.85;65591.50;5052665;28;20182;-53
2023/09/25 11:01:31;;;;;;;5.93;3.75;;;;;;;24.44;58.51;65566.94;5052449;28;20221;-51
2023/09/25 11:03:59;;;;;;;7.10;3.58;;;;;;;24.16;62.02;65539.03;5052794;28;20201;-53
2023/09/25 11:06:25;;;;;;;10.80;3.85;;;;;;;24.17;62.58;65540.13;5052300;28;20220;-52
2023/09/25 11:09:21;;;;;;;6.80;3.90;;;;;;;24.26;62.09;65547.00;5052338;28;20198;-52
2023/09/25 11:11:47;;;;;;;5.03;3.83;;;;;;;24.40;77.11;65565.09;5036081;28;20324;-52
2023/09/25 11:14:13;;;;;;;5.03;3.92;;;;;;;24.65;66.37;65590.78;5052126;28;20270;-52
2023/09/25 11:16:40;;;;;;;5.60;4.20;;;;;;;24.69;64.27;65600.38;5052577;28;20219;-54
2023/09/25 11:19:10;;;;;;;7.43;4.18;;;;;;;24.54;65.49;65586.34;5052521;28;20192;-56
2023/09/25 11:21:36;;;;;;;8.70;4.78;;;;;;;24.43;60.47;65568.97;5052175;28;20691;-55
2023/09/25 11:24:07;;;;;;;5.05;3.83;;;;;;;24.52;67.35;65578.97;5052252;28;20352;-55